createdAt,value
2022-10-03T00:00:17.170Z,9.99
2022-10-03T00:03:11.447Z,9.92
2022-10-03T00:05:47.845Z,9.89
2022-10-03T00:08:37.186Z,9.91
2022-10-03T00:11:48.321Z,9.84
2022-10-03T00:14:26.743Z,9.80
2022-10-03T00:17:04.906Z,9.78
2022-10-03T00:19:50.278Z,9.77
2022-10-03T00:22:40.404Z,9.79
2022-10-03T00:25:19.257Z,9.79
2022-10-03T00:28:04.375Z,9.72
2022-10-03T00:30:44.656Z,9.68
2022-10-03T00:33:24.552Z,9.69
2022-10-03T00:36:02.241Z,9.65
2022-10-03T00:38:43.803Z,9.66
2022-10-03T00:41:32.698Z,9.63
2022-10-03T00:43:59.334Z,9.64
2022-10-03T00:46:44.079Z,9.63
2022-10-03T00:49:29.544Z,9.65
2022-10-03T00:52:39.627Z,9.71
2022-10-03T00:55:27.962Z,9.55
2022-10-03T00:58:02.950Z,9.51
2022-10-03T01:00:35.571Z,9.41
2022-10-03T01:03:05.264Z,9.35
2022-10-03T01:05:59.068Z,9.39
2022-10-03T01:09:07.067Z,9.27
2022-10-03T01:11:46.806Z,9.04
2022-10-03T01:14:38.990Z,8.81
2022-10-03T01:17:05.537Z,8.95
2022-10-03T01:19:50.696Z,8.89
2022-10-03T01:22:48.379Z,8.87
2022-10-03T01:25:19.659Z,8.85
2022-10-03T01:28:07.944Z,8.94
2022-10-03T01:30:42.577Z,8.94
2022-10-03T01:33:27.966Z,8.98
2022-10-03T01:35:59.073Z,9.07
2022-10-03T01:38:36.541Z,9.16
2022-10-03T01:41:13.997Z,9.21
2022-10-03T01:43:50.379Z,9.26
2022-10-03T01:46:32.547Z,9.35
2022-10-03T01:49:14.194Z,9.36
2022-10-03T01:52:09.407Z,9.23
2022-10-03T01:54:59.346Z,9.40
2022-10-03T01:57:35.276Z,9.41
2022-10-03T02:00:11.443Z,9.44
2022-10-03T02:02:50.291Z,9.40
2022-10-03T02:05:43.813Z,9.20
2022-10-03T02:08:25.487Z,9.23
2022-10-03T02:11:03.398Z,9.26
2022-10-03T02:13:37.158Z,9.24
2022-10-03T02:16:22.799Z,9.22
2022-10-03T02:19:07.275Z,9.27
2022-10-03T02:21:47.335Z,9.07
2022-10-03T02:24:23.747Z,8.88
2022-10-03T02:27:08.513Z,8.77
2022-10-03T02:30:11.602Z,8.37
2022-10-03T02:33:05.236Z,7.93
2022-10-03T02:35:50.628Z,7.97
2022-10-03T02:38:51.121Z,7.88
2022-10-03T02:42:05.885Z,7.95
2022-10-03T02:44:41.768Z,8.02
2022-10-03T02:47:25.140Z,8.11
2022-10-03T02:50:22.159Z,8.18
2022-10-03T02:52:57.645Z,8.20
2022-10-03T02:55:28.125Z,8.13
2022-10-03T02:58:16.165Z,8.25
2022-10-03T03:01:33.951Z,8.35
2022-10-03T03:04:23.108Z,8.32
2022-10-03T03:07:22.115Z,8.28
2022-10-03T03:10:28.827Z,8.45
2022-10-03T03:13:21.043Z,8.66
2022-10-03T03:16:14.535Z,8.71
2022-10-03T03:19:18.766Z,8.65
2022-10-03T03:22:25.377Z,8.74
2022-10-03T03:25:04.138Z,8.86
2022-10-03T03:27:35.616Z,8.86
2022-10-03T03:30:09.947Z,8.84
2022-10-03T03:32:56.343Z,9.04
2022-10-03T03:35:28.639Z,9.08
2022-10-03T03:37:58.164Z,8.95
2022-10-03T03:40:44.350Z,9.02
2022-10-03T03:43:40.242Z,9.04
2022-10-03T03:46:20.714Z,8.97
2022-10-03T03:49:31.047Z,9.09
2022-10-03T03:52:39.638Z,9.08
2022-10-03T03:55:23.716Z,8.94
2022-10-03T03:58:18.833Z,9.06
2022-10-03T04:01:03.385Z,9.06
2022-10-03T04:03:59.945Z,9.12
2022-10-03T04:06:31.742Z,9.11
2022-10-03T04:09:47.974Z,9.22
2022-10-03T04:12:14.949Z,9.15
2022-10-03T04:14:47.897Z,9.05
2022-10-03T04:18:14.134Z,9.14
2022-10-03T04:20:55.361Z,9.20
2022-10-03T04:23:52.667Z,9.33
2022-10-03T04:26:47.408Z,9.41
2022-10-03T04:29:55.888Z,9.44
2022-10-03T04:32:41.966Z,9.37
2022-10-03T04:35:42.960Z,9.41
2022-10-03T04:38:52.003Z,9.50
2022-10-03T04:41:43.061Z,9.55
2022-10-03T04:44:16.531Z,9.55
2022-10-03T04:47:15.422Z,9.41
2022-10-03T04:49:58.617Z,9.53
2022-10-03T04:52:49.283Z,9.49
2022-10-03T04:55:26.937Z,9.58
2022-10-03T04:57:56.348Z,9.54
2022-10-03T05:00:46.535Z,9.48
2022-10-03T05:03:35.024Z,9.62
2022-10-03T05:06:17.784Z,9.60
2022-10-03T05:08:53.729Z,9.62
2022-10-03T05:11:25.812Z,9.66
2022-10-03T05:14:17.339Z,9.80
2022-10-03T05:17:09.855Z,9.87
2022-10-03T05:19:36.628Z,9.99
2022-10-03T05:22:17.215Z,9.99
2022-10-03T05:24:56.932Z,10.07
2022-10-03T05:27:37.758Z,10.25
2022-10-03T05:30:26.623Z,10.35
2022-10-03T05:33:02.847Z,10.54
2022-10-03T05:35:53.428Z,10.70
2022-10-03T05:38:51.090Z,10.81
2022-10-03T05:41:25.176Z,10.97
2022-10-03T05:44:01.791Z,11.21
2022-10-03T05:46:39.632Z,11.35
2022-10-03T05:49:28.066Z,11.58
2022-10-03T05:52:15.067Z,11.81
2022-10-03T05:54:45.838Z,12.01
2022-10-03T05:57:44.033Z,12.11
2022-10-03T06:00:35.945Z,11.97
2022-10-03T06:03:12.426Z,12.05
2022-10-03T06:06:09.059Z,12.24
2022-10-03T06:09:03.457Z,12.44
2022-10-03T06:12:02.538Z,12.53
2022-10-03T06:14:50.540Z,12.53
2022-10-03T06:17:39.776Z,12.48
2022-10-03T06:20:09.602Z,12.52
2022-10-03T06:23:06.831Z,12.70
2022-10-03T06:25:42.353Z,12.74
2022-10-03T06:28:38.517Z,12.86
2022-10-03T06:31:31.175Z,12.97
2022-10-03T06:34:36.175Z,13.08
2022-10-03T06:37:27.146Z,13.23
2022-10-03T06:40:31.482Z,13.21
2022-10-03T06:43:17.267Z,13.01
2022-10-03T06:46:16.193Z,13.00
2022-10-03T06:49:04.618Z,12.98
2022-10-03T06:51:56.246Z,12.91
2022-10-03T06:54:31.934Z,12.87
2022-10-03T06:57:04.642Z,12.63
2022-10-03T07:00:02.245Z,12.25
2022-10-03T07:02:38.268Z,12.00
2022-10-03T07:05:20.148Z,11.84
2022-10-03T07:08:14.677Z,11.66
2022-10-03T07:11:14.765Z,11.65
2022-10-03T07:14:12.251Z,11.51
2022-10-03T07:16:43.835Z,11.37
2022-10-03T07:19:34.981Z,11.22
2022-10-03T07:22:40.394Z,11.25
2022-10-03T07:25:27.621Z,11.19
2022-10-03T07:28:22.222Z,11.07
2022-10-03T07:31:09.466Z,11.05
2022-10-03T07:33:50.591Z,11.23
2022-10-03T07:36:44.912Z,11.05
2022-10-03T07:39:36.107Z,11.07
2022-10-03T07:42:12.230Z,11.26
2022-10-03T07:44:57.678Z,11.39
2022-10-03T07:47:36.274Z,11.18
2022-10-03T07:50:44.967Z,11.04
2022-10-03T07:53:33.857Z,10.93
2022-10-03T07:56:35.741Z,10.93
2022-10-03T07:59:21.246Z,11.01
2022-10-03T08:02:11.203Z,11.15
2022-10-03T08:05:05.476Z,11.38
2022-10-03T08:08:10.846Z,11.75
2022-10-03T08:10:56.185Z,12.00
2022-10-03T08:13:44.599Z,12.14
2022-10-03T08:16:39.330Z,12.29
2022-10-03T08:19:17.457Z,12.39
2022-10-03T08:22:20.263Z,12.44
2022-10-03T08:25:21.467Z,12.34
2022-10-03T08:28:16.847Z,12.30
2022-10-03T08:31:05.792Z,12.27
2022-10-03T08:33:57.027Z,12.34
2022-10-03T08:36:42.626Z,12.32
2022-10-03T08:39:14.164Z,12.44
2022-10-03T08:41:41.273Z,12.50
2022-10-03T08:44:37.111Z,12.51
2022-10-03T08:47:21.070Z,12.52
2022-10-03T08:50:06.360Z,12.71
2022-10-03T08:52:32.924Z,12.85
2022-10-03T08:55:19.862Z,13.27
2022-10-03T08:58:28.275Z,13.48
2022-10-03T09:01:13.355Z,13.51
2022-10-03T09:04:22.199Z,13.31
2022-10-03T09:07:17.123Z,13.31
2022-10-03T09:10:07.759Z,13.27
2022-10-03T09:12:58.176Z,13.42
2022-10-03T09:15:58.501Z,13.39
2022-10-03T09:19:03.362Z,13.23
2022-10-03T09:21:39.577Z,12.99
2022-10-03T09:24:20.636Z,12.92
2022-10-03T09:27:20.504Z,13.05
2022-10-03T09:30:24.757Z,13.11
2022-10-03T09:32:57.097Z,13.54
2022-10-03T09:35:45.442Z,13.46
2022-10-03T09:38:12.091Z,13.57
2022-10-03T09:40:53.779Z,13.51
2022-10-03T09:43:45.000Z,13.46
2022-10-03T09:46:26.861Z,13.62
2022-10-03T09:49:15.464Z,13.68
2022-10-03T09:52:05.522Z,14.06
2022-10-03T09:54:51.800Z,14.36
2022-10-03T09:57:23.018Z,14.58
2022-10-03T10:00:35.822Z,14.76
2022-10-03T10:03:25.896Z,14.60
2022-10-03T10:06:07.064Z,14.62
2022-10-03T10:08:33.630Z,14.70
2022-10-03T10:11:20.077Z,14.95
2022-10-03T10:14:14.784Z,14.78
2022-10-03T10:17:00.109Z,14.81
2022-10-03T10:19:29.501Z,15.14
2022-10-03T10:22:14.721Z,15.35
2022-10-03T10:24:50.805Z,15.33
2022-10-03T10:28:02.387Z,15.11
2022-10-03T10:30:45.822Z,15.04
2022-10-03T10:33:36.934Z,15.00
2022-10-03T10:36:34.355Z,14.92
2022-10-03T10:39:14.237Z,14.84
2022-10-03T10:41:46.588Z,14.74
2022-10-03T10:44:46.937Z,14.76
2022-10-03T10:47:27.494Z,14.53
2022-10-03T10:50:50.647Z,14.42
2022-10-03T10:54:14.649Z,14.25
2022-10-03T10:57:09.652Z,14.07
2022-10-03T10:59:48.251Z,13.99
2022-10-03T11:02:39.676Z,14.05
2022-10-03T11:05:35.061Z,14.21
2022-10-03T11:08:35.620Z,14.31
2022-10-03T11:11:11.178Z,14.14
2022-10-03T11:13:43.842Z,13.85
2022-10-03T11:16:56.236Z,13.68
2022-10-03T11:19:43.666Z,13.56
2022-10-03T11:22:44.539Z,13.53
2022-10-03T11:25:41.302Z,13.83
2022-10-03T11:28:08.161Z,13.91
2022-10-03T11:31:12.218Z,14.00
2022-10-03T11:34:26.509Z,13.88
2022-10-03T11:37:17.668Z,13.80
2022-10-03T11:40:19.696Z,13.75
2022-10-03T11:43:23.679Z,14.38
2022-10-03T11:46:08.767Z,14.90
2022-10-03T11:48:41.413Z,14.75
2022-10-03T11:51:10.792Z,14.58
2022-10-03T11:54:07.623Z,14.40
2022-10-03T11:56:47.936Z,14.44
2022-10-03T11:59:45.636Z,14.39
2022-10-03T12:02:21.025Z,14.49
2022-10-03T12:04:59.651Z,14.36
2022-10-03T12:08:14.376Z,14.40
2022-10-03T12:11:19.312Z,14.81
2022-10-03T12:14:16.293Z,15.12
2022-10-03T12:16:57.741Z,14.91
2022-10-03T12:19:46.219Z,14.97
2022-10-03T12:22:25.341Z,15.29
2022-10-03T12:24:59.065Z,15.49
2022-10-03T12:27:47.353Z,15.74
2022-10-03T12:30:17.112Z,15.50
2022-10-03T12:33:08.006Z,15.49
2022-10-03T12:35:50.728Z,15.27
2022-10-03T12:38:52.669Z,14.92
2022-10-03T12:41:33.761Z,15.14
2022-10-03T12:44:22.031Z,14.92
2022-10-03T12:47:07.681Z,14.90
2022-10-03T12:50:07.009Z,15.22
2022-10-03T12:52:57.608Z,15.55
2022-10-03T12:55:32.400Z,15.89
2022-10-03T12:58:15.060Z,15.91
2022-10-03T13:00:45.751Z,15.87
2022-10-03T13:03:21.188Z,15.73
2022-10-03T13:06:09.044Z,15.82
2022-10-03T13:09:03.770Z,15.49
2022-10-03T13:12:26.836Z,15.34
2022-10-03T13:15:29.535Z,15.02
2022-10-03T13:18:01.910Z,15.28
2022-10-03T13:20:37.243Z,15.27
2022-10-03T13:23:14.725Z,15.62
2022-10-03T13:26:18.456Z,15.12
2022-10-03T13:28:53.882Z,15.05
2022-10-03T13:31:28.749Z,15.27
2022-10-03T13:34:01.201Z,15.31
2022-10-03T13:36:39.959Z,15.31
2022-10-03T13:39:23.886Z,15.13
2022-10-03T13:42:15.687Z,15.13
2022-10-03T13:44:50.347Z,15.09
2022-10-03T13:47:32.153Z,15.21
2022-10-03T13:50:15.420Z,15.23
2022-10-03T13:53:03.757Z,15.15
2022-10-03T13:55:42.345Z,15.11
2022-10-03T13:58:23.325Z,15.34
2022-10-03T14:01:02.411Z,15.47
2022-10-03T14:03:49.019Z,15.15
2022-10-03T14:06:51.549Z,14.73
2022-10-03T14:09:17.998Z,14.93
2022-10-03T14:12:16.035Z,15.02
2022-10-03T14:14:56.878Z,14.66
2022-10-03T14:18:00.776Z,14.55
2022-10-03T14:20:34.672Z,14.63
2022-10-03T14:23:22.020Z,14.49
2022-10-03T14:26:05.024Z,14.61
2022-10-03T14:28:37.852Z,14.56
2022-10-03T14:31:24.236Z,14.46
2022-10-03T14:34:26.044Z,13.95
2022-10-03T14:37:38.265Z,13.79
2022-10-03T14:40:32.907Z,13.56
2022-10-03T14:43:08.846Z,13.65
2022-10-03T14:45:45.489Z,13.60
2022-10-03T14:48:22.730Z,13.65
2022-10-03T14:50:52.645Z,13.60
2022-10-03T14:53:25.418Z,13.51
2022-10-03T14:55:51.985Z,13.56
2022-10-03T14:58:21.218Z,13.51
2022-10-03T15:00:55.486Z,13.32
2022-10-03T15:03:29.121Z,13.13
2022-10-03T15:06:03.240Z,13.25
2022-10-03T15:08:43.276Z,13.24
2022-10-03T15:11:14.001Z,13.57
2022-10-03T15:13:51.050Z,13.71
2022-10-03T15:16:22.238Z,13.75
2022-10-03T15:18:56.635Z,13.70
2022-10-03T15:21:26.246Z,13.80
2022-10-03T15:24:03.960Z,13.75
2022-10-03T15:26:36.293Z,13.40
2022-10-03T15:29:06.380Z,13.27
2022-10-03T15:31:40.695Z,12.82
2022-10-03T15:34:17.812Z,12.63
2022-10-03T15:36:50.050Z,12.81
2022-10-03T15:39:23.295Z,12.87
2022-10-03T15:42:01.376Z,12.63
2022-10-03T15:44:39.672Z,12.54
2022-10-03T15:47:09.160Z,12.44
2022-10-03T15:49:40.254Z,12.33
2022-10-03T15:52:16.541Z,12.27
2022-10-03T15:55:10.961Z,12.07
2022-10-03T15:57:44.303Z,12.06
2022-10-03T16:00:20.092Z,12.10
2022-10-03T16:02:53.221Z,11.93
2022-10-03T16:05:25.620Z,11.84
2022-10-03T16:07:58.926Z,11.97
2022-10-03T16:10:29.545Z,11.95
2022-10-03T16:12:59.621Z,12.01
2022-10-03T16:15:49.415Z,11.95
2022-10-03T16:18:18.710Z,11.95
2022-10-03T16:20:56.958Z,11.85
2022-10-03T16:23:34.529Z,11.88
2022-10-03T16:26:23.614Z,11.91
2022-10-03T16:28:50.816Z,11.90
2022-10-03T16:31:28.933Z,11.88
2022-10-03T16:34:02.997Z,11.92
2022-10-03T16:36:33.473Z,11.98
2022-10-03T16:39:04.781Z,11.77
2022-10-03T16:41:44.033Z,11.80
2022-10-03T16:44:41.184Z,11.70
2022-10-03T16:47:09.705Z,11.55
2022-10-03T16:50:12.609Z,11.62
2022-10-03T16:52:40.798Z,11.51
2022-10-03T16:55:34.955Z,11.64
2022-10-03T16:58:10.117Z,11.51
2022-10-03T17:01:25.435Z,11.57
2022-10-03T17:03:50.247Z,11.56
2022-10-03T17:06:28.757Z,11.51
2022-10-03T17:08:59.318Z,11.52
2022-10-03T17:11:28.816Z,11.46
2022-10-03T17:13:59.879Z,11.44
2022-10-03T17:16:34.159Z,11.29
2022-10-03T17:19:01.097Z,11.27
2022-10-03T17:21:31.197Z,11.20
2022-10-03T17:24:03.662Z,11.19
2022-10-03T17:26:35.971Z,11.09
2022-10-03T17:29:19.388Z,11.04
2022-10-03T17:32:03.511Z,10.86
2022-10-03T17:34:39.279Z,10.61
2022-10-03T17:37:34.788Z,10.62
2022-10-03T17:40:44.231Z,10.33
2022-10-03T17:43:21.649Z,10.47
2022-10-03T17:46:27.665Z,10.54
2022-10-03T17:49:26.651Z,10.51
2022-10-03T17:51:55.518Z,10.50
2022-10-03T17:54:33.489Z,10.53
2022-10-03T17:57:11.048Z,10.57
2022-10-03T17:59:50.661Z,10.53
2022-10-03T18:02:33.833Z,10.51
2022-10-03T18:05:13.092Z,10.51
2022-10-03T18:07:43.398Z,10.56
2022-10-03T18:10:24.699Z,10.66
2022-10-03T18:12:56.281Z,10.78
2022-10-03T18:15:55.188Z,10.83
2022-10-03T18:19:03.630Z,10.84
2022-10-03T18:21:49.085Z,10.86
2022-10-03T18:24:31.220Z,10.88
2022-10-03T18:27:03.476Z,10.91
2022-10-03T18:29:36.878Z,10.97
2022-10-03T18:32:23.289Z,10.93
2022-10-03T18:35:15.280Z,11.05
2022-10-03T18:37:44.992Z,11.15
2022-10-03T18:40:25.033Z,11.16
2022-10-03T18:42:52.147Z,11.18
2022-10-03T18:45:44.901Z,11.02
2022-10-03T18:48:27.337Z,10.96
2022-10-03T18:51:03.160Z,11.00
2022-10-03T18:53:37.294Z,10.79
2022-10-03T18:56:12.286Z,10.84
2022-10-03T18:58:46.451Z,10.83
2022-10-03T19:01:38.623Z,10.81
2022-10-03T19:04:10.301Z,10.78
2022-10-03T19:06:45.081Z,10.70
2022-10-03T19:09:20.194Z,10.61
2022-10-03T19:11:50.947Z,10.54
2022-10-03T19:14:22.889Z,10.52
2022-10-03T19:17:11.734Z,10.50
2022-10-03T19:19:44.594Z,10.37
2022-10-03T19:22:18.484Z,9.83
2022-10-03T19:24:59.374Z,10.32
2022-10-03T19:27:51.647Z,10.39
2022-10-03T19:30:24.850Z,10.34
2022-10-03T19:33:09.235Z,10.29
2022-10-03T19:35:41.481Z,10.22
2022-10-03T19:38:37.489Z,10.26
2022-10-03T19:41:18.325Z,10.27
2022-10-03T19:43:49.601Z,10.32
2022-10-03T19:46:22.715Z,10.30
2022-10-03T19:48:58.653Z,10.34
2022-10-03T19:51:27.393Z,10.34
2022-10-03T19:53:57.789Z,10.35
2022-10-03T19:56:27.456Z,10.37
2022-10-03T19:59:06.900Z,10.19
2022-10-03T20:01:45.108Z,10.18
2022-10-03T20:04:17.794Z,10.15
2022-10-03T20:06:51.093Z,10.09
2022-10-03T20:09:28.799Z,10.14
2022-10-03T20:12:03.889Z,10.00
2022-10-03T20:14:36.282Z,10.03
2022-10-03T20:17:14.222Z,9.85
2022-10-03T20:19:55.295Z,9.83
2022-10-03T20:22:34.405Z,9.76
2022-10-03T20:25:01.518Z,9.77
2022-10-03T20:27:43.255Z,9.68
2022-10-03T20:30:36.914Z,9.78
2022-10-03T20:33:05.036Z,9.83
2022-10-03T20:35:50.252Z,9.79
2022-10-03T20:38:25.937Z,9.87
2022-10-03T20:41:01.263Z,9.85
2022-10-03T20:43:41.251Z,9.79
2022-10-03T20:46:09.248Z,9.76
2022-10-03T20:48:40.996Z,9.72
2022-10-03T20:51:21.247Z,9.66
2022-10-03T20:53:53.240Z,9.50
2022-10-03T20:56:29.334Z,9.53
2022-10-03T20:58:58.224Z,9.46
2022-10-03T21:01:28.690Z,9.44
2022-10-03T21:04:05.176Z,9.45
2022-10-03T21:06:51.976Z,9.41
2022-10-03T21:09:21.803Z,9.38
2022-10-03T21:11:54.561Z,9.29
2022-10-03T21:14:25.822Z,9.31
2022-10-03T21:16:53.815Z,9.35
2022-10-03T21:19:32.556Z,9.32
2022-10-03T21:22:02.919Z,9.15
2022-10-03T21:25:03.259Z,9.06
2022-10-03T21:27:33.436Z,9.08
2022-10-03T21:30:14.366Z,8.88
2022-10-03T21:32:56.393Z,8.83
2022-10-03T21:35:41.707Z,8.82
2022-10-03T21:38:09.001Z,8.78
2022-10-03T21:40:42.106Z,8.76
2022-10-03T21:43:18.072Z,8.83
2022-10-03T21:45:50.406Z,8.83
2022-10-03T21:48:44.429Z,8.85
2022-10-03T21:51:45.400Z,8.88
2022-10-03T21:54:23.991Z,9.01
2022-10-03T21:57:34.162Z,8.94
2022-10-03T22:00:11.040Z,9.01
2022-10-03T22:02:56.813Z,9.12
2022-10-03T22:05:34.387Z,9.11
2022-10-03T22:08:13.691Z,9.15
2022-10-03T22:10:53.068Z,9.19
2022-10-03T22:13:25.052Z,9.25
2022-10-03T22:16:10.523Z,9.32
2022-10-03T22:19:22.553Z,9.39
2022-10-03T22:22:07.914Z,9.47
2022-10-03T22:25:20.886Z,9.51
2022-10-03T22:27:56.960Z,9.46
2022-10-03T22:30:23.798Z,9.39
2022-10-03T22:33:15.241Z,9.40
2022-10-03T22:35:59.638Z,9.48
2022-10-03T22:38:32.917Z,9.50
2022-10-03T22:41:03.779Z,9.39
2022-10-03T22:43:31.005Z,9.47
2022-10-03T22:45:59.184Z,9.48
2022-10-03T22:48:31.184Z,9.45
2022-10-03T22:50:59.056Z,9.47
2022-10-03T22:53:31.127Z,9.38
2022-10-03T22:55:59.742Z,9.31
2022-10-03T22:58:29.174Z,9.46
2022-10-03T23:00:59.625Z,9.45
2022-10-03T23:03:31.068Z,9.39
2022-10-03T23:06:09.930Z,9.52
2022-10-03T23:09:12.174Z,9.48
2022-10-03T23:11:40.986Z,9.40
2022-10-03T23:14:33.600Z,9.30
2022-10-03T23:17:09.343Z,9.32
2022-10-03T23:20:19.953Z,9.13
2022-10-03T23:22:50.721Z,9.35
2022-10-03T23:25:24.215Z,9.33
2022-10-03T23:27:50.808Z,9.40
2022-10-03T23:30:17.373Z,9.48
2022-10-03T23:32:46.984Z,9.39
2022-10-03T23:35:20.353Z,9.41
2022-10-03T23:37:48.858Z,9.36
2022-10-03T23:40:37.199Z,9.42
2022-10-03T23:43:28.147Z,9.37
2022-10-03T23:46:00.555Z,9.31
2022-10-03T23:48:30.740Z,9.25
2022-10-03T23:51:01.292Z,9.24
2022-10-03T23:53:33.767Z,9.31
2022-10-03T23:56:03.174Z,9.21
2022-10-03T23:58:32.841Z,9.26
